Terminal Aerodrome Forecast
Issued by NWS Cleveland, OH

Home | Current Version | Previous Version | Text Only | Print | Product List | Glossary Off
Versions: 1 2 3 4 5 6 7 8 9 10 11 12 13 14 15 16

000
FTUS41 KCLE 011120
TAFERI
TAF
KERI 011120Z 0112/0212 25006KT P6SM BKN012
      TEMPO 0112/0114 4SM BR BKN008
     FM011400 26008KT P6SM BKN025
     FM011800 26010KT P6SM BKN045
     FM020000 28004KT P6SM BKN045
     FM020900 35004KT 5SM BR BKN020=

USA.gov is the U.S. government's official web portal to all federal, state and local government web resources and services.